createdAt,value
2022-11-30T00:02:04.258Z,33.90
2022-11-30T00:04:32.457Z,37.47
2022-11-30T00:07:00.545Z,30.90
2022-11-30T00:09:28.640Z,34.03
2022-11-30T00:11:56.633Z,29.87
2022-11-30T00:14:25.978Z,32.03
2022-11-30T00:16:54.074Z,33.80
2022-11-30T00:19:22.154Z,44.30
2022-11-30T00:21:50.233Z,37.93
2022-11-30T00:24:18.151Z,34.73
2022-11-30T00:26:46.222Z,32.27
2022-11-30T00:29:14.248Z,38.97
2022-11-30T00:31:43.980Z,33.17
2022-11-30T00:34:12.266Z,41.80
2022-11-30T00:36:40.327Z,34.83
2022-11-30T00:39:08.310Z,37.77
2022-11-30T00:41:36.363Z,31.63
2022-11-30T00:44:04.356Z,31.37
2022-11-30T00:46:32.676Z,39.07
2022-11-30T00:49:02.032Z,33.90
2022-11-30T00:51:29.980Z,38.43
2022-11-30T00:53:58.159Z,33.30
2022-11-30T00:56:27.499Z,37.53
2022-11-30T00:58:55.472Z,38.63
2022-11-30T01:01:23.575Z,38.00
2022-11-30T01:03:51.835Z,34.33
2022-11-30T01:06:21.186Z,33.43
2022-11-30T01:08:49.306Z,31.97
2022-11-30T01:11:21.727Z,44.93
2022-11-30T01:13:49.791Z,38.97
2022-11-30T01:16:19.836Z,39.40
2022-11-30T01:18:48.680Z,39.97
2022-11-30T01:21:19.039Z,35.23
2022-11-30T01:23:49.317Z,34.27
2022-11-30T01:26:17.785Z,42.17
2022-11-30T01:28:50.566Z,37.10
2022-11-30T01:31:18.947Z,35.37
2022-11-30T01:33:50.704Z,38.30
2022-11-30T01:36:21.242Z,36.70
2022-11-30T01:38:53.247Z,31.60
2022-11-30T01:41:23.171Z,34.37
2022-11-30T01:43:52.631Z,43.10
2022-11-30T01:46:25.812Z,43.83
2022-11-30T01:49:14.427Z,48.40
2022-11-30T01:51:47.385Z,38.13
2022-11-30T01:54:19.477Z,38.93
2022-11-30T01:56:51.642Z,37.90
2022-11-30T01:59:23.126Z,41.77
2022-11-30T02:01:52.835Z,35.57
2022-11-30T02:04:25.307Z,48.03
2022-11-30T02:06:53.972Z,39.30
2022-11-30T02:09:24.895Z,37.27
2022-11-30T02:11:53.174Z,38.57
2022-11-30T02:14:34.947Z,36.50
2022-11-30T02:17:11.171Z,34.40
2022-11-30T02:20:12.425Z,47.07
2022-11-30T02:22:55.389Z,37.80
2022-11-30T02:25:30.202Z,48.20
2022-11-30T02:28:13.737Z,37.63
2022-11-30T02:30:47.879Z,34.83
2022-11-30T02:33:19.510Z,42.70
2022-11-30T02:35:55.067Z,39.90
2022-11-30T02:38:25.113Z,44.37
2022-11-30T02:40:53.270Z,41.00
2022-11-30T02:43:22.981Z,48.87
2022-11-30T02:46:00.641Z,43.00
2022-11-30T02:48:33.503Z,40.20
2022-11-30T02:51:04.903Z,36.70
2022-11-30T02:53:33.051Z,49.07
2022-11-30T02:56:01.152Z,47.77
2022-11-30T02:58:29.466Z,31.77
2022-11-30T03:00:59.040Z,38.03
2022-11-30T03:03:27.146Z,46.67
2022-11-30T03:05:55.206Z,36.67
2022-11-30T03:08:23.286Z,37.87
2022-11-30T03:10:51.258Z,42.47
2022-11-30T03:13:19.360Z,41.70
2022-11-30T03:15:47.845Z,38.47
2022-11-30T03:18:17.374Z,38.10
2022-11-30T03:20:46.008Z,37.40
2022-11-30T03:23:13.978Z,44.53
2022-11-30T03:25:42.045Z,37.17
2022-11-30T03:28:10.234Z,45.37
2022-11-30T03:30:38.224Z,39.70
2022-11-30T03:33:06.417Z,44.47
2022-11-30T03:35:35.805Z,41.90
2022-11-30T03:38:03.814Z,44.63
2022-11-30T03:40:31.773Z,35.80
2022-11-30T03:42:59.832Z,51.20
2022-11-30T03:45:27.999Z,40.30
2022-11-30T03:47:56.077Z,36.77
2022-11-30T03:50:24.214Z,43.03
2022-11-30T03:52:53.617Z,38.13
2022-11-30T03:55:21.672Z,36.10
2022-11-30T03:57:49.731Z,37.60
2022-11-30T04:00:18.680Z,37.00
2022-11-30T04:02:46.501Z,42.60
2022-11-30T04:05:14.493Z,47.47
2022-11-30T04:07:42.454Z,41.17
2022-11-30T04:10:13.162Z,42.90
2022-11-30T04:12:41.187Z,35.13
2022-11-30T04:15:10.515Z,37.77
2022-11-30T04:17:38.477Z,32.10
2022-11-30T04:20:07.997Z,43.40
2022-11-30T04:22:36.031Z,36.80
2022-11-30T04:25:04.049Z,40.97
2022-11-30T04:27:33.545Z,37.77
2022-11-30T04:30:01.536Z,41.67
2022-11-30T04:32:29.449Z,40.20
2022-11-30T04:34:57.394Z,42.47
2022-11-30T04:37:25.495Z,38.93
2022-11-30T04:39:53.518Z,41.27
2022-11-30T04:42:21.550Z,36.80
2022-11-30T04:44:50.947Z,44.37
2022-11-30T04:47:18.906Z,29.80
2022-11-30T04:49:46.987Z,39.30
2022-11-30T04:52:15.066Z,40.30
2022-11-30T04:54:43.034Z,37.67
2022-11-30T04:57:11.147Z,48.43
2022-11-30T04:59:39.174Z,45.00
2022-11-30T05:02:08.644Z,43.57
2022-11-30T05:04:36.990Z,48.90
2022-11-30T05:07:05.131Z,42.50
2022-11-30T05:09:33.335Z,42.20
2022-11-30T05:12:01.625Z,43.30
2022-11-30T05:14:29.600Z,35.23
2022-11-30T05:16:57.599Z,42.73
2022-11-30T05:19:27.090Z,39.93
2022-11-30T05:21:55.292Z,38.47
2022-11-30T05:24:23.266Z,36.27
2022-11-30T05:26:51.327Z,48.13
2022-11-30T05:29:19.432Z,39.83
2022-11-30T05:31:47.538Z,38.47
2022-11-30T05:34:15.778Z,43.63
2022-11-30T05:36:45.235Z,40.23
2022-11-30T05:39:13.295Z,36.50
2022-11-30T05:41:41.307Z,38.33
2022-11-30T05:44:10.025Z,37.17
2022-11-30T05:46:41.089Z,44.63
2022-11-30T05:49:09.374Z,42.73
2022-11-30T05:51:37.363Z,40.97
2022-11-30T05:54:06.944Z,40.90
2022-11-30T05:56:35.001Z,35.07
2022-11-30T05:59:02.962Z,43.60
2022-11-30T06:01:31.156Z,34.57
2022-11-30T06:03:59.171Z,41.80
2022-11-30T06:06:27.171Z,40.30
2022-11-30T06:08:55.670Z,32.60
2022-11-30T06:11:25.426Z,38.33
2022-11-30T06:13:53.716Z,37.87
2022-11-30T06:16:21.871Z,40.10
2022-11-30T06:18:49.954Z,45.20
2022-11-30T06:21:23.980Z,49.03
2022-11-30T06:23:52.725Z,35.73
2022-11-30T06:26:21.175Z,48.60
2022-11-30T06:28:50.614Z,44.17
2022-11-30T06:31:18.708Z,42.30
2022-11-30T06:33:46.768Z,40.23
2022-11-30T06:36:14.859Z,43.83
2022-11-30T06:38:43.050Z,39.20
2022-11-30T06:41:12.551Z,39.10
2022-11-30T06:43:41.233Z,38.03
2022-11-30T06:46:11.316Z,40.53
2022-11-30T06:48:39.747Z,32.33
2022-11-30T06:51:09.112Z,41.90
2022-11-30T06:53:38.203Z,48.37
2022-11-30T06:56:10.357Z,36.53
2022-11-30T06:58:39.712Z,42.40
2022-11-30T07:01:11.267Z,38.67
2022-11-30T07:03:39.789Z,30.83
2022-11-30T07:06:09.481Z,40.60
2022-11-30T07:08:38.090Z,44.43
2022-11-30T07:11:06.947Z,39.80
2022-11-30T07:13:35.041Z,48.57
2022-11-30T07:16:06.481Z,34.30
2022-11-30T07:18:36.254Z,37.70
2022-11-30T07:21:05.918Z,34.23
2022-11-30T07:23:55.980Z,44.83
2022-11-30T07:26:25.752Z,39.00
2022-11-30T07:28:58.451Z,36.37
2022-11-30T07:31:28.942Z,37.20
2022-11-30T07:33:59.496Z,37.93
2022-11-30T07:36:29.682Z,37.67
2022-11-30T07:38:57.758Z,36.90
2022-11-30T07:41:26.360Z,37.87
2022-11-30T07:43:54.539Z,37.00
2022-11-30T07:46:22.981Z,33.73
2022-11-30T07:48:51.131Z,37.33
2022-11-30T07:51:23.064Z,43.63
2022-11-30T07:53:51.300Z,35.07
2022-11-30T07:56:21.389Z,34.63
2022-11-30T07:58:50.973Z,42.67
2022-11-30T08:01:21.675Z,35.03
2022-11-30T08:03:50.590Z,33.47
2022-11-30T08:06:21.579Z,41.73
2022-11-30T08:08:50.828Z,37.10
2022-11-30T08:11:20.708Z,42.90
2022-11-30T08:13:49.139Z,47.93
2022-11-30T08:16:19.246Z,39.27
2022-11-30T08:18:48.055Z,26.57
2022-11-30T08:21:18.165Z,36.17
2022-11-30T08:23:49.536Z,35.23
2022-11-30T08:26:19.294Z,33.23
2022-11-30T08:28:48.663Z,35.20
2022-11-30T08:31:19.576Z,40.87
2022-11-30T08:33:48.168Z,35.33
2022-11-30T08:36:19.331Z,32.73
2022-11-30T08:38:49.476Z,33.30
2022-11-30T08:41:19.175Z,30.37
2022-11-30T08:43:47.592Z,38.47
2022-11-30T08:49:20.867Z,35.27
2022-11-30T08:54:42.949Z,31.90
2022-11-30T08:57:11.136Z,31.83
2022-11-30T08:59:39.330Z,28.47
2022-11-30T09:02:07.874Z,34.07
2022-11-30T09:04:35.998Z,31.67
2022-11-30T09:07:04.361Z,32.67
2022-11-30T09:09:32.671Z,37.13
2022-11-30T09:12:02.152Z,34.17
2022-11-30T09:14:30.391Z,29.10
2022-11-30T09:16:58.602Z,28.43
2022-11-30T09:19:26.705Z,32.00
2022-11-30T09:21:54.852Z,32.93
2022-11-30T09:24:22.944Z,29.90
2022-11-30T09:26:51.108Z,33.10
2022-11-30T09:29:20.585Z,27.60
2022-11-30T09:31:49.309Z,34.43
2022-11-30T09:34:17.785Z,25.70
2022-11-30T09:36:46.073Z,32.33
2022-11-30T09:39:14.091Z,27.70
2022-11-30T09:42:09.015Z,30.10
2022-11-30T09:44:47.950Z,30.83
2022-11-30T09:47:31.864Z,28.17
2022-11-30T09:50:05.355Z,25.93
2022-11-30T09:52:37.079Z,31.77
2022-11-30T09:55:10.568Z,28.30
2022-11-30T09:57:47.082Z,30.03
2022-11-30T10:00:21.656Z,31.23
2022-11-30T10:02:50.757Z,29.93
2022-11-30T10:05:21.654Z,34.00
2022-11-30T10:08:20.042Z,28.37
2022-11-30T10:10:56.450Z,29.40
2022-11-30T10:13:35.399Z,26.50
2022-11-30T10:16:16.584Z,24.93
2022-11-30T10:18:54.884Z,23.03
2022-11-30T10:21:41.106Z,21.70
2022-11-30T10:24:22.029Z,23.37
2022-11-30T10:26:57.356Z,29.10
2022-11-30T10:29:32.005Z,25.47
2022-11-30T10:32:03.824Z,23.93
2022-11-30T10:34:35.766Z,26.20
2022-11-30T10:37:16.375Z,29.07
2022-11-30T10:39:56.373Z,23.33
2022-11-30T10:42:30.874Z,21.83
2022-11-30T10:45:02.847Z,22.53
2022-11-30T10:47:37.087Z,26.03
2022-11-30T10:50:07.134Z,26.37
2022-11-30T10:52:43.071Z,20.50
2022-11-30T10:55:16.118Z,22.83
2022-11-30T10:57:45.228Z,23.83
2022-11-30T11:00:16.649Z,21.73
2022-11-30T11:02:46.998Z,28.53
2022-11-30T11:05:21.328Z,22.67
2022-11-30T11:08:01.218Z,22.17
2022-11-30T11:10:35.004Z,23.90
2022-11-30T11:13:03.379Z,25.83
2022-11-30T11:15:33.251Z,25.73
2022-11-30T11:18:23.845Z,22.27
2022-11-30T11:21:05.927Z,22.10
2022-11-30T11:23:37.507Z,26.10
2022-11-30T11:26:07.100Z,20.53
2022-11-30T11:28:37.267Z,22.73
2022-11-30T11:31:19.352Z,21.40
2022-11-30T11:33:55.964Z,19.50
2022-11-30T11:36:28.966Z,26.77
2022-11-30T11:38:57.913Z,39.80
2022-11-30T11:41:28.633Z,36.20
2022-11-30T11:44:03.149Z,48.20
2022-11-30T11:46:33.392Z,25.87
2022-11-30T11:49:05.050Z,19.90
2022-11-30T11:51:35.133Z,25.23
2022-11-30T11:54:08.019Z,19.17
2022-11-30T11:56:37.628Z,24.83
2022-11-30T11:59:15.248Z,19.37
2022-11-30T12:02:00.172Z,22.90
2022-11-30T12:04:47.391Z,18.03
2022-11-30T12:07:24.153Z,22.97
2022-11-30T12:10:09.615Z,16.60
2022-11-30T12:12:54.650Z,14.83
2022-11-30T12:15:27.678Z,17.43
2022-11-30T12:18:06.638Z,17.87
2022-11-30T12:20:53.721Z,16.50
2022-11-30T12:23:38.917Z,18.20
2022-11-30T12:26:16.964Z,13.23
2022-11-30T12:29:05.098Z,19.33
2022-11-30T12:31:44.838Z,15.93
2022-11-30T12:34:17.909Z,17.90
2022-11-30T12:36:57.691Z,19.97
2022-11-30T12:39:37.312Z,15.00
2022-11-30T12:42:11.462Z,18.13
2022-11-30T12:44:48.860Z,16.07
2022-11-30T12:47:29.094Z,24.03
2022-11-30T12:50:18.015Z,18.53
2022-11-30T12:52:56.853Z,19.20
2022-11-30T12:55:34.348Z,18.53
2022-11-30T12:58:12.012Z,18.47
2022-11-30T13:00:49.366Z,18.17
2022-11-30T13:03:40.234Z,15.73
2022-11-30T13:06:12.978Z,21.47
2022-11-30T13:08:51.609Z,14.80
2022-11-30T13:11:23.936Z,15.33
2022-11-30T13:13:55.960Z,29.13
2022-11-30T13:16:26.493Z,15.27
2022-11-30T13:18:59.834Z,16.20
2022-11-30T13:21:34.116Z,19.70
2022-11-30T13:24:09.914Z,22.13
2022-11-30T13:26:43.980Z,25.27
2022-11-30T13:29:25.623Z,31.10
2022-11-30T13:31:58.062Z,27.37
2022-11-30T13:34:28.141Z,30.63
2022-11-30T13:37:07.852Z,31.33
2022-11-30T13:39:47.377Z,24.00
2022-11-30T13:42:39.143Z,29.70
2022-11-30T13:45:34.495Z,33.20
2022-11-30T13:48:19.798Z,26.90
2022-11-30T13:50:49.880Z,35.50
2022-11-30T13:53:24.263Z,35.87
2022-11-30T13:55:58.128Z,37.23
2022-11-30T13:58:26.959Z,33.70
2022-11-30T14:01:17.552Z,35.40
2022-11-30T14:03:47.996Z,37.70
2022-11-30T14:06:48.287Z,35.60
2022-11-30T14:09:16.914Z,28.13
2022-11-30T14:11:46.830Z,32.27
2022-11-30T14:14:46.858Z,35.50
2022-11-30T14:17:24.980Z,37.47
2022-11-30T14:19:55.000Z,40.00
2022-11-30T14:22:24.005Z,45.77
2022-11-30T14:24:52.172Z,38.43
2022-11-30T14:27:24.455Z,39.53
2022-11-30T14:29:56.060Z,35.53
2022-11-30T14:32:36.284Z,42.20
2022-11-30T14:35:10.392Z,41.37
2022-11-30T14:37:44.111Z,46.67
2022-11-30T14:40:19.336Z,42.53
2022-11-30T14:42:54.037Z,36.37
2022-11-30T14:45:24.886Z,40.00
2022-11-30T14:47:56.966Z,43.13
2022-11-30T14:50:51.082Z,42.70
2022-11-30T14:53:29.530Z,44.63
2022-11-30T14:56:03.340Z,46.53
2022-11-30T14:58:39.114Z,33.13
2022-11-30T15:01:18.262Z,38.83
2022-11-30T15:03:47.884Z,53.37
2022-11-30T15:06:18.428Z,48.60
2022-11-30T15:08:49.897Z,43.17
2022-11-30T15:11:19.557Z,44.77
2022-11-30T15:13:50.867Z,43.90
2022-11-30T15:16:22.249Z,41.43
2022-11-30T15:18:50.938Z,47.67
2022-11-30T15:21:23.571Z,39.07
2022-11-30T15:23:52.004Z,45.43
2022-11-30T15:26:25.804Z,50.13
2022-11-30T15:28:59.665Z,44.70
2022-11-30T15:31:33.571Z,37.47
2022-11-30T15:34:01.710Z,45.57
2022-11-30T15:36:35.149Z,49.77
2022-11-30T15:39:06.606Z,51.10
2022-11-30T15:41:36.114Z,54.33
2022-11-30T15:44:05.791Z,52.17
2022-11-30T15:46:39.981Z,45.40
2022-11-30T15:49:24.486Z,37.93
2022-11-30T15:52:04.297Z,38.63
2022-11-30T15:54:46.402Z,40.73
2022-11-30T15:57:15.145Z,56.20
2022-11-30T16:02:28.588Z,52.13
2022-11-30T16:05:22.358Z,38.20
2022-11-30T16:07:53.072Z,50.57
2022-11-30T16:10:23.503Z,48.23
2022-11-30T16:12:52.914Z,45.17
2022-11-30T16:15:23.309Z,46.83
2022-11-30T16:17:54.398Z,44.97
2022-11-30T16:20:22.633Z,52.67
2022-11-30T16:22:51.018Z,43.53
2022-11-30T16:25:21.739Z,43.50
2022-11-30T16:27:50.517Z,42.47
2022-11-30T16:30:21.631Z,56.87
2022-11-30T16:32:50.431Z,46.97
2022-11-30T16:35:22.765Z,43.00
2022-11-30T16:37:51.490Z,43.17
2022-11-30T16:40:21.198Z,55.33
2022-11-30T16:42:51.059Z,38.93
2022-11-30T16:45:21.471Z,54.63
2022-11-30T16:47:49.525Z,39.83
2022-11-30T16:50:19.459Z,38.90
2022-11-30T16:52:47.983Z,55.83
2022-11-30T16:55:17.836Z,40.70
2022-11-30T16:57:46.143Z,38.53
2022-11-30T17:00:16.835Z,41.60
2022-11-30T17:02:56.037Z,42.40
2022-11-30T17:05:26.322Z,64.00
2022-11-30T17:07:54.637Z,59.53
2022-11-30T17:10:23.157Z,38.43
2022-11-30T17:12:51.168Z,51.83
2022-11-30T17:15:21.366Z,49.87
2022-11-30T17:17:49.484Z,52.87
2022-11-30T17:20:18.710Z,50.07
2022-11-30T17:22:47.957Z,45.37
2022-11-30T17:25:17.756Z,53.67
2022-11-30T17:27:45.891Z,35.47
2022-11-30T17:30:15.975Z,45.97
2022-11-30T17:32:44.210Z,41.63
2022-11-30T17:35:12.923Z,50.77
2022-11-30T17:37:41.019Z,53.80
2022-11-30T17:40:14.432Z,42.53
2022-11-30T17:42:43.482Z,47.17
2022-11-30T17:45:12.070Z,37.00
2022-11-30T17:47:40.111Z,49.67
2022-11-30T17:50:10.066Z,47.13
2022-11-30T17:52:38.116Z,55.20
2022-11-30T17:55:07.063Z,46.17
2022-11-30T17:57:38.450Z,53.87
2022-11-30T18:00:08.460Z,37.03
2022-11-30T18:02:36.587Z,62.87
2022-11-30T18:05:04.786Z,44.67
2022-11-30T18:07:32.780Z,47.80
2022-11-30T18:10:01.880Z,45.40
2022-11-30T18:12:29.914Z,49.47
2022-11-30T18:14:59.336Z,49.63
2022-11-30T18:17:27.637Z,39.70
2022-11-30T18:19:55.614Z,57.73
2022-11-30T18:22:23.635Z,51.67
2022-11-30T18:24:51.608Z,50.60
2022-11-30T18:27:19.740Z,44.87
2022-11-30T18:29:47.908Z,49.87
2022-11-30T18:32:17.240Z,44.43
2022-11-30T18:34:49.284Z,49.07
2022-11-30T18:37:17.887Z,52.17
2022-11-30T18:39:45.929Z,46.67
2022-11-30T18:42:13.964Z,56.90
2022-11-30T18:44:42.007Z,43.03
2022-11-30T18:47:10.027Z,48.93
2022-11-30T18:49:39.521Z,43.13
2022-11-30T18:52:07.800Z,44.40
2022-11-30T18:54:36.287Z,54.43
2022-11-30T18:57:04.594Z,44.53
2022-11-30T18:59:32.668Z,34.37
2022-11-30T19:02:00.754Z,60.87
2022-11-30T19:04:29.064Z,42.87
2022-11-30T19:06:58.857Z,54.07
2022-11-30T19:09:27.195Z,36.40
2022-11-30T19:11:55.963Z,40.83
2022-11-30T19:14:23.928Z,46.63
2022-11-30T19:16:52.126Z,47.53
2022-11-30T19:19:21.664Z,45.73
2022-11-30T19:21:49.893Z,40.47
2022-11-30T19:24:19.295Z,37.13
2022-11-30T19:26:47.339Z,41.97
2022-11-30T19:29:15.596Z,53.93
2022-11-30T19:31:43.702Z,50.10
2022-11-30T19:34:13.533Z,48.87
2022-11-30T19:36:42.078Z,47.77
2022-11-30T19:39:11.422Z,43.07
2022-11-30T19:41:41.039Z,41.67
2022-11-30T19:44:13.936Z,39.37
2022-11-30T19:46:43.530Z,44.30
2022-11-30T19:49:12.103Z,54.07
2022-11-30T19:51:40.155Z,48.57
2022-11-30T19:54:08.461Z,39.57
2022-11-30T19:56:39.075Z,40.73
2022-11-30T19:59:08.531Z,48.87
2022-11-30T20:01:37.163Z,46.43
2022-11-30T20:04:06.120Z,39.97
2022-11-30T20:06:36.026Z,49.03
2022-11-30T20:09:05.579Z,41.63
2022-11-30T20:11:34.133Z,46.57
2022-11-30T20:14:02.110Z,35.50
2022-11-30T20:16:31.901Z,44.73
2022-11-30T20:19:01.785Z,46.53
2022-11-30T20:21:31.968Z,44.60
2022-11-30T20:24:01.851Z,39.87
2022-11-30T20:26:31.665Z,50.50
2022-11-30T20:29:01.277Z,34.00
2022-11-30T20:31:32.301Z,40.80
2022-11-30T20:34:00.709Z,41.70
2022-11-30T20:36:29.751Z,47.17
2022-11-30T20:38:59.163Z,47.63
2022-11-30T20:41:27.752Z,57.53
2022-11-30T20:43:56.661Z,52.97
2022-11-30T20:46:27.316Z,40.57
2022-11-30T20:48:57.619Z,60.07
2022-11-30T20:51:32.506Z,39.27
2022-11-30T20:54:02.675Z,32.33
2022-11-30T20:56:31.617Z,39.47
2022-11-30T20:59:03.899Z,44.10
2022-11-30T21:01:32.139Z,32.60
2022-11-30T21:04:01.894Z,60.10
2022-11-30T21:06:30.852Z,35.77
2022-11-30T21:08:59.688Z,44.10
2022-11-30T21:11:28.871Z,54.17
2022-11-30T21:13:57.826Z,47.63
2022-11-30T21:16:29.018Z,53.43
2022-11-30T21:18:59.660Z,36.67
2022-11-30T21:21:31.556Z,46.00
2022-11-30T21:24:01.251Z,35.00
2022-11-30T21:26:30.761Z,35.93
2022-11-30T21:29:02.598Z,55.53
2022-11-30T21:31:31.451Z,41.40
2022-11-30T21:33:59.580Z,48.07
2022-11-30T21:36:29.551Z,41.37
2022-11-30T21:39:04.868Z,48.47
2022-11-30T21:41:33.797Z,29.93
2022-11-30T21:44:01.834Z,41.33
2022-11-30T21:46:30.022Z,37.20
2022-11-30T21:48:58.237Z,32.37
2022-11-30T21:51:29.443Z,31.80
2022-11-30T21:53:59.274Z,39.60
2022-11-30T21:56:28.989Z,52.63
2022-11-30T21:58:57.901Z,43.57
2022-11-30T22:01:28.771Z,43.93
2022-11-30T22:03:58.215Z,40.33
2022-11-30T22:06:29.107Z,56.43
2022-11-30T22:08:57.922Z,43.40
2022-11-30T22:11:26.050Z,48.47
2022-11-30T22:13:55.313Z,47.70
2022-11-30T22:16:25.139Z,45.10
2022-11-30T22:18:54.454Z,58.50
2022-11-30T22:21:23.680Z,39.57
2022-11-30T22:23:56.366Z,34.13
2022-11-30T22:26:26.244Z,39.30
2022-11-30T22:28:55.613Z,42.43
2022-11-30T22:31:25.855Z,46.80
2022-11-30T22:33:54.317Z,48.53
2022-11-30T22:36:24.463Z,40.40
2022-11-30T22:38:57.560Z,35.13
2022-11-30T22:41:26.709Z,34.17
2022-11-30T22:43:56.046Z,42.60
2022-11-30T22:46:26.667Z,42.83
2022-11-30T22:48:55.155Z,52.87
2022-11-30T22:51:25.157Z,31.10
2022-11-30T22:53:55.347Z,44.30
2022-11-30T22:56:25.201Z,37.20
2022-11-30T22:58:54.991Z,49.53
2022-11-30T23:01:25.006Z,32.47
2022-11-30T23:03:56.237Z,52.43
2022-11-30T23:06:25.698Z,35.20
2022-11-30T23:08:55.286Z,44.97
2022-11-30T23:11:26.359Z,44.03
2022-11-30T23:13:54.564Z,41.77
2022-11-30T23:16:22.935Z,56.90
2022-11-30T23:18:53.985Z,33.10
2022-11-30T23:21:24.265Z,46.60
2022-11-30T23:23:52.870Z,36.30
2022-11-30T23:26:24.445Z,51.93
2022-11-30T23:28:54.062Z,51.40
2022-11-30T23:31:33.737Z,57.97
2022-11-30T23:34:05.305Z,44.07
2022-11-30T23:36:34.438Z,47.90
2022-11-30T23:39:04.672Z,40.57
2022-11-30T23:41:34.325Z,37.73
2022-11-30T23:44:02.940Z,44.33
2022-11-30T23:46:31.430Z,65.37
2022-11-30T23:48:59.661Z,35.80
2022-11-30T23:51:27.911Z,52.80
2022-11-30T23:53:56.090Z,35.70
2022-11-30T23:56:24.967Z,37.40
2022-11-30T23:58:54.462Z,48.83
